createdAt,value
2019-02-04T00:00:43.054Z,2.00
2019-02-04T00:03:17.080Z,2.25
2019-02-04T00:05:45.356Z,2.55
2019-02-04T00:08:13.642Z,2.83
2019-02-04T00:10:42.545Z,3.17
2019-02-04T00:13:10.804Z,2.20
2019-02-04T00:15:39.136Z,3.70
2019-02-04T00:18:07.537Z,2.60
2019-02-04T00:20:35.790Z,4.25
2019-02-04T00:23:04.119Z,3.20
2019-02-04T00:25:32.510Z,3.40
2019-02-04T00:28:00.795Z,3.30
2019-02-04T00:30:29.092Z,2.60
2019-02-04T00:32:57.352Z,2.65
2019-02-04T00:35:25.631Z,2.50
2019-02-04T00:37:53.944Z,2.30
2019-02-04T00:40:26.722Z,2.75
2019-02-04T00:42:54.989Z,3.00
2019-02-04T00:45:23.314Z,2.40
2019-02-04T00:47:51.620Z,3.37
2019-02-04T00:50:21.055Z,3.23
2019-02-04T00:52:49.313Z,3.47
2019-02-04T00:55:17.669Z,3.00
2019-02-04T00:57:45.888Z,3.50
2019-02-04T01:00:22.767Z,4.37
2019-02-04T01:02:51.219Z,3.60
2019-02-04T01:05:19.965Z,4.10
2019-02-04T01:07:48.849Z,3.45
2019-02-04T01:10:20.378Z,3.40
2019-02-04T01:12:48.700Z,4.15
2019-02-04T01:15:16.946Z,4.50
2019-02-04T01:17:45.253Z,4.25
2019-02-04T01:20:16.776Z,3.92
2019-02-04T01:22:45.188Z,3.83
2019-02-04T01:25:13.735Z,4.72
2019-02-04T01:27:41.989Z,4.62
2019-02-04T01:30:13.513Z,4.30
2019-02-04T01:32:41.783Z,4.53
2019-02-04T01:35:10.068Z,3.85
2019-02-04T01:37:38.405Z,3.45
2019-02-04T01:40:10.152Z,3.67
2019-02-04T01:42:38.445Z,4.12
2019-02-04T01:45:07.951Z,3.95
2019-02-04T01:47:36.279Z,3.55
2019-02-04T01:50:07.649Z,3.75
2019-02-04T01:52:36.116Z,3.98
2019-02-04T01:55:06.925Z,3.20
2019-02-04T01:57:35.213Z,3.25
2019-02-04T02:00:05.279Z,3.55
2019-02-04T02:02:33.594Z,3.25
2019-02-04T02:05:01.898Z,2.90
2019-02-04T02:07:30.637Z,3.50
2019-02-04T02:09:58.964Z,3.62
2019-02-04T02:12:27.230Z,3.70
2019-02-04T02:14:55.479Z,3.35
2019-02-04T02:17:26.431Z,3.60
2019-02-04T02:19:53.824Z,3.60
2019-02-04T02:22:22.388Z,2.85
2019-02-04T02:24:50.755Z,3.47
2019-02-04T02:27:19.009Z,3.55
2019-02-04T02:29:47.356Z,4.03
2019-02-04T02:32:15.659Z,4.85
2019-02-04T02:34:43.922Z,4.47
2019-02-04T02:37:12.709Z,3.90
2019-02-04T02:39:41.005Z,5.17
2019-02-04T02:42:09.256Z,5.03
2019-02-04T02:44:37.648Z,4.80
2019-02-04T02:47:05.908Z,5.42
2019-02-04T02:49:34.245Z,5.58
2019-02-04T02:52:02.688Z,5.30
2019-02-04T02:54:31.223Z,4.15
2019-02-04T02:56:59.533Z,4.67
2019-02-04T02:59:27.818Z,5.40
2019-02-04T03:01:56.111Z,5.33
2019-02-04T03:04:24.414Z,5.95
2019-02-04T03:06:52.721Z,5.37
2019-02-04T03:09:21.254Z,6.72
2019-02-04T03:11:49.596Z,5.90
2019-02-04T03:14:17.881Z,5.80
2019-02-04T03:16:46.138Z,6.33
2019-02-04T03:19:14.431Z,7.05
2019-02-04T03:21:42.699Z,5.22
2019-02-04T03:24:11.088Z,5.87
2019-02-04T03:26:39.394Z,6.67
2019-02-04T03:29:07.700Z,5.60
2019-02-04T03:31:39.312Z,7.12
2019-02-04T03:34:06.144Z,6.92
2019-02-04T03:36:34.430Z,7.70
2019-02-04T03:39:02.881Z,7.20
2019-02-04T03:41:31.156Z,7.37
2019-02-04T03:43:59.478Z,6.85
2019-02-04T03:46:27.776Z,7.28
2019-02-04T03:48:56.091Z,6.85
2019-02-04T03:51:24.368Z,7.50
2019-02-04T03:53:52.621Z,8.78
2019-02-04T03:56:21.047Z,8.55
2019-02-04T03:58:49.290Z,7.50
2019-02-04T04:01:17.605Z,7.62
2019-02-04T04:03:46.032Z,8.03
2019-02-04T04:06:14.331Z,8.23
2019-02-04T04:08:42.683Z,7.30
2019-02-04T04:11:11.136Z,9.38
2019-02-04T04:13:39.394Z,8.57
2019-02-04T04:16:07.755Z,9.38
2019-02-04T04:18:36.019Z,9.58
2019-02-04T04:21:04.336Z,8.60
2019-02-04T04:23:32.639Z,9.88
2019-02-04T04:26:01.290Z,8.70
2019-02-04T04:28:29.543Z,8.90
2019-02-04T04:30:57.834Z,10.08
2019-02-04T04:33:26.109Z,10.03
2019-02-04T04:35:54.429Z,8.85
2019-02-04T04:38:22.714Z,9.50
2019-02-04T04:40:51.133Z,7.53
2019-02-04T04:43:19.394Z,8.50
2019-02-04T04:45:47.646Z,9.10
2019-02-04T04:48:26.048Z,8.83
2019-02-04T04:50:46.013Z,8.80
2019-02-04T04:53:14.272Z,8.10
2019-02-04T04:55:42.558Z,8.78
2019-02-04T04:58:10.825Z,8.93
2019-02-04T05:00:39.139Z,8.05
2019-02-04T05:03:07.398Z,7.60
2019-02-04T05:05:35.726Z,7.95
2019-02-04T05:08:04.027Z,8.50
2019-02-04T05:10:32.292Z,8.55
2019-02-04T05:13:01.078Z,8.27
2019-02-04T05:15:29.412Z,8.28
2019-02-04T05:17:59.302Z,8.85
2019-02-04T05:20:27.732Z,9.07
2019-02-04T05:22:56.062Z,8.90
2019-02-04T05:25:24.322Z,10.00
2019-02-04T05:27:53.082Z,8.37
2019-02-04T05:30:23.431Z,7.78
2019-02-04T05:32:51.684Z,7.70
2019-02-04T05:35:20.087Z,7.37
2019-02-04T05:37:48.351Z,9.70
2019-02-04T05:40:17.582Z,7.40
2019-02-04T05:42:46.319Z,7.60
2019-02-04T05:45:16.617Z,7.53
2019-02-04T05:47:44.999Z,8.05
2019-02-04T05:50:17.254Z,8.53
2019-02-04T05:52:45.129Z,8.60
2019-02-04T05:55:14.180Z,8.03
2019-02-04T05:57:42.633Z,8.53
2019-02-04T06:00:13.905Z,8.45
2019-02-04T06:02:42.250Z,8.65
2019-02-04T06:05:12.244Z,8.40
2019-02-04T06:07:40.504Z,8.73
2019-02-04T06:10:10.582Z,9.00
2019-02-04T06:12:38.836Z,8.70
2019-02-04T06:15:10.633Z,9.00
2019-02-04T06:17:39.034Z,8.00
2019-02-04T06:20:10.531Z,9.33
2019-02-04T06:22:38.910Z,9.00
2019-02-04T06:25:07.527Z,8.30
2019-02-04T06:27:35.850Z,7.70
2019-02-04T06:30:05.570Z,8.68
2019-02-04T06:32:34.637Z,9.43
2019-02-04T06:35:03.216Z,8.87
2019-02-04T06:37:31.469Z,9.03
2019-02-04T06:39:59.788Z,9.03
2019-02-04T06:42:28.081Z,9.47
2019-02-04T06:44:56.367Z,9.55
2019-02-04T06:47:24.622Z,9.93
2019-02-04T06:49:53.039Z,10.70
2019-02-04T06:52:21.356Z,9.80
2019-02-04T06:54:49.638Z,9.65
2019-02-04T06:57:18.386Z,8.95
2019-02-04T06:59:46.662Z,8.45
2019-02-04T07:02:14.916Z,9.45
2019-02-04T07:04:43.204Z,10.72
2019-02-04T07:07:11.471Z,9.40
2019-02-04T07:09:39.820Z,9.73
2019-02-04T07:12:08.568Z,9.70
2019-02-04T07:14:36.988Z,9.98
2019-02-04T07:17:05.244Z,9.83
2019-02-04T07:19:33.523Z,9.60
2019-02-04T07:22:01.821Z,9.58
2019-02-04T07:24:30.083Z,8.93
2019-02-04T07:26:58.566Z,10.20
2019-02-04T07:29:27.302Z,8.95
2019-02-04T07:31:55.566Z,9.85
2019-02-04T07:34:23.881Z,10.80
2019-02-04T07:36:52.136Z,8.53
2019-02-04T07:39:20.467Z,8.57
2019-02-04T07:41:48.735Z,9.10
2019-02-04T07:44:17.043Z,8.80
2019-02-04T07:46:45.343Z,8.30
2019-02-04T07:49:14.070Z,9.33
2019-02-04T07:51:42.363Z,7.55
2019-02-04T07:54:10.635Z,8.33
2019-02-04T07:56:38.960Z,8.98
2019-02-04T07:59:07.213Z,8.25
2019-02-04T08:01:35.781Z,9.13
2019-02-04T08:04:04.415Z,8.53
2019-02-04T08:06:32.682Z,8.20
2019-02-04T08:09:00.961Z,9.03
2019-02-04T08:11:29.293Z,8.67
2019-02-04T08:13:57.661Z,8.87
2019-02-04T08:16:26.404Z,9.10
2019-02-04T08:18:54.678Z,8.43
2019-02-04T08:21:23.071Z,7.83
2019-02-04T08:23:51.329Z,8.20
2019-02-04T08:26:19.578Z,8.10
2019-02-04T08:28:47.870Z,8.57
2019-02-04T08:31:16.153Z,8.27
2019-02-04T08:33:44.505Z,8.47
2019-02-04T08:36:12.774Z,9.13
2019-02-04T08:38:41.045Z,9.50
2019-02-04T08:41:09.329Z,9.17
2019-02-04T08:43:37.601Z,8.70
2019-02-04T08:46:05.865Z,6.60
2019-02-04T08:48:34.129Z,9.70
2019-02-04T08:51:02.432Z,9.30
2019-02-04T08:53:30.690Z,7.93
2019-02-04T08:55:58.939Z,8.67
2019-02-04T08:58:27.224Z,9.33
2019-02-04T09:00:55.519Z,8.33
2019-02-04T09:03:23.829Z,8.00
2019-02-04T09:05:52.073Z,8.03
2019-02-04T09:08:20.422Z,8.47
2019-02-04T09:10:48.686Z,8.40
2019-02-04T09:13:17.088Z,9.03
2019-02-04T09:15:45.435Z,8.20
2019-02-04T09:18:13.694Z,8.10
2019-02-04T09:20:41.994Z,9.10
2019-02-04T09:23:10.379Z,9.10
2019-02-04T09:25:38.752Z,10.13
2019-02-04T09:28:07.039Z,10.30
2019-02-04T09:30:35.354Z,8.87
2019-02-04T09:33:03.882Z,9.10
2019-02-04T09:35:32.156Z,8.70
2019-02-04T09:38:05.961Z,9.27
2019-02-04T09:40:37.289Z,8.87
2019-02-04T09:43:05.796Z,9.07
2019-02-04T09:45:34.053Z,9.50
2019-02-04T09:48:05.840Z,8.63
2019-02-04T09:50:38.103Z,9.20
2019-02-04T09:53:06.892Z,9.80
2019-02-04T09:55:40.956Z,9.30
2019-02-04T09:58:12.844Z,8.87
2019-02-04T10:00:41.184Z,9.47
2019-02-04T10:03:09.617Z,8.53
2019-02-04T10:05:38.404Z,7.17
2019-02-04T10:08:07.617Z,8.47
2019-02-04T10:10:35.871Z,7.40
2019-02-04T10:13:05.146Z,6.90
2019-02-04T10:15:38.543Z,8.20
2019-02-04T10:18:07.776Z,6.90
2019-02-04T10:20:36.408Z,7.90
2019-02-04T10:23:05.594Z,7.13
2019-02-04T10:25:42.823Z,8.50
2019-02-04T10:28:13.124Z,8.00
2019-02-04T10:30:41.458Z,6.90
2019-02-04T10:33:09.799Z,7.00
2019-02-04T10:35:38.154Z,6.43
2019-02-04T10:38:06.635Z,6.60
2019-02-04T10:40:34.976Z,7.10
2019-02-04T10:43:03.293Z,6.63
2019-02-04T10:45:31.739Z,6.53
2019-02-04T10:47:59.962Z,7.00
2019-02-04T10:50:30.738Z,6.33
2019-02-04T10:52:59.142Z,5.23
2019-02-04T10:55:27.445Z,5.97
2019-02-04T10:57:55.832Z,5.70
2019-02-04T11:00:38.409Z,5.40
2019-02-04T11:03:07.079Z,6.30
2019-02-04T11:05:37.540Z,5.87
2019-02-04T11:08:07.120Z,5.70
2019-02-04T11:10:36.301Z,6.13
2019-02-04T11:13:10.721Z,5.57
2019-02-04T11:15:39.340Z,4.27
2019-02-04T11:18:07.982Z,5.20
2019-02-04T11:20:36.594Z,5.27
2019-02-04T11:23:10.839Z,5.57
2019-02-04T11:25:38.595Z,5.67
2019-02-04T11:28:08.027Z,5.33
2019-02-04T11:30:48.794Z,5.87
2019-02-04T11:33:18.947Z,5.00
2019-02-04T11:35:51.164Z,5.40
2019-02-04T11:38:19.309Z,5.23
2019-02-04T11:40:47.593Z,4.33
2019-02-04T11:43:20.591Z,5.50
2019-02-04T11:45:55.003Z,4.70
2019-02-04T11:48:26.029Z,5.77
2019-02-04T11:50:53.506Z,6.00
2019-02-04T11:53:32.520Z,5.80
2019-02-04T11:55:56.140Z,4.63
2019-02-04T11:58:33.544Z,5.30
2019-02-04T12:01:03.682Z,5.57
2019-02-04T12:03:37.681Z,5.40
2019-02-04T12:06:05.326Z,5.20
2019-02-04T12:08:33.835Z,5.43
2019-02-04T12:11:04.486Z,6.17
2019-02-04T12:13:32.787Z,5.87
2019-02-04T12:16:01.198Z,5.10
2019-02-04T12:18:29.628Z,5.30
2019-02-04T12:20:58.066Z,4.57
2019-02-04T12:23:31.768Z,5.10
2019-02-04T12:26:01.542Z,5.73
2019-02-04T12:28:31.575Z,5.67
2019-02-04T12:31:00.231Z,4.50
2019-02-04T12:33:35.361Z,4.50
2019-02-04T12:36:13.348Z,4.87
2019-02-04T12:38:37.239Z,4.77
2019-02-04T12:41:22.007Z,5.30
2019-02-04T12:44:45.941Z,5.30
2019-02-04T12:46:27.018Z,4.93
2019-02-04T12:48:54.252Z,4.80
2019-02-04T12:51:33.169Z,4.90
2019-02-04T12:53:56.514Z,6.10
2019-02-04T12:56:27.982Z,5.53
2019-02-04T12:58:58.365Z,5.80
2019-02-04T13:01:26.713Z,5.07
2019-02-04T13:04:01.037Z,5.13
2019-02-04T13:06:37.087Z,5.00
2019-02-04T13:09:02.956Z,5.57
2019-02-04T13:11:34.675Z,5.60
2019-02-04T13:14:03.056Z,5.60
2019-02-04T13:16:31.477Z,5.87
2019-02-04T13:19:00.084Z,5.07
2019-02-04T13:21:28.566Z,4.90
2019-02-04T13:23:56.928Z,4.73
2019-02-04T13:26:25.697Z,4.67
2019-02-04T13:28:54.008Z,5.37
2019-02-04T13:31:22.432Z,5.80
2019-02-04T13:33:50.734Z,4.67
2019-02-04T13:36:19.204Z,4.43
2019-02-04T13:38:47.654Z,5.30
2019-02-04T13:41:16.042Z,5.03
2019-02-04T13:43:44.503Z,5.93
2019-02-04T13:46:12.761Z,5.13
2019-02-04T13:48:41.185Z,4.80
2019-02-04T13:51:09.754Z,5.37
2019-02-04T13:53:38.047Z,4.70
2019-02-04T13:56:06.493Z,5.40
2019-02-04T13:58:34.977Z,5.00
2019-02-04T14:01:04.755Z,4.30
2019-02-04T14:03:33.115Z,4.90
2019-02-04T14:06:01.651Z,6.00
2019-02-04T14:08:30.075Z,5.33
2019-02-04T14:10:58.465Z,4.03
2019-02-04T14:13:26.885Z,5.80
2019-02-04T14:15:55.252Z,5.33
2019-02-04T14:18:26.517Z,6.10
2019-02-04T14:20:53.604Z,4.90
2019-02-04T14:23:21.932Z,5.77
2019-02-04T14:25:50.292Z,5.57
2019-02-04T14:28:18.603Z,4.70
2019-02-04T14:30:47.041Z,5.17
2019-02-04T14:33:15.422Z,5.23
2019-02-04T14:35:43.811Z,5.80
2019-02-04T14:38:12.297Z,6.00
2019-02-04T14:40:40.555Z,5.23
2019-02-04T14:43:12.402Z,5.13
2019-02-04T14:46:14.705Z,5.33
2019-02-04T14:48:49.031Z,5.10
2019-02-04T14:51:23.465Z,4.50
2019-02-04T14:54:11.483Z,4.87
2019-02-04T14:56:57.933Z,4.60
2019-02-04T14:59:27.956Z,4.80
2019-02-04T15:02:08.614Z,5.20
2019-02-04T15:04:46.232Z,4.93
2019-02-04T15:07:49.451Z,5.27
2019-02-04T15:10:33.330Z,4.97
2019-02-04T15:13:11.091Z,4.30
2019-02-04T15:16:08.541Z,4.97
2019-02-04T15:18:42.702Z,5.80
2019-02-04T15:21:20.075Z,5.93
2019-02-04T15:24:08.120Z,5.10
2019-02-04T15:26:33.350Z,5.30
2019-02-04T15:29:10.584Z,5.30
2019-02-04T15:32:03.191Z,4.70
2019-02-04T15:34:43.602Z,4.63
2019-02-04T15:37:24.464Z,4.67
2019-02-04T15:40:01.772Z,5.10
2019-02-04T15:42:55.943Z,4.77
2019-02-04T15:45:55.759Z,6.00
2019-02-04T15:48:27.283Z,5.93
2019-02-04T15:50:58.903Z,6.10
2019-02-04T15:53:50.301Z,4.67
2019-02-04T15:58:45.530Z,6.00
2019-02-04T16:07:52.328Z,6.47
2019-02-04T16:08:12.926Z,5.30
2019-02-04T16:09:52.893Z,6.23
2019-02-04T16:22:57.831Z,4.33
2019-02-04T16:24:12.438Z,4.90
2019-02-04T16:30:06.967Z,4.23
2019-02-04T16:38:05.686Z,3.97
2019-02-04T16:41:21.488Z,3.93
2019-02-04T16:43:30.580Z,3.20
2019-02-04T16:46:00.099Z,2.80
2019-02-04T16:49:18.877Z,3.33
2019-02-04T16:51:11.355Z,3.97
2019-02-04T16:53:51.520Z,3.40
2019-02-04T16:56:15.676Z,2.73
2019-02-04T16:58:49.299Z,3.07
2019-02-04T17:02:52.975Z,2.80
2019-02-04T17:03:51.220Z,3.10
2019-02-04T17:06:25.085Z,3.47
2019-02-04T17:08:55.115Z,3.20
2019-02-04T17:12:11.817Z,2.90
2019-02-04T17:14:04.068Z,3.90
2019-02-04T17:16:34.566Z,4.07
2019-02-04T17:19:09.216Z,3.47
2019-02-04T17:21:41.948Z,3.30
2019-02-04T17:24:09.715Z,2.90
2019-02-04T17:26:43.413Z,3.10
2019-02-04T17:29:14.017Z,3.60
2019-02-04T17:31:44.105Z,2.67
2019-02-04T17:34:15.900Z,4.00
2019-02-04T17:36:46.215Z,4.20
2019-02-04T17:39:20.446Z,3.03
2019-02-04T17:41:54.293Z,3.63
2019-02-04T17:44:24.035Z,3.00
2019-02-04T17:46:57.565Z,3.10
2019-02-04T17:49:27.723Z,4.13
2019-02-04T17:52:06.878Z,2.40
2019-02-04T17:54:36.458Z,3.43
2019-02-04T17:57:18.799Z,3.33
2019-02-04T17:59:47.395Z,3.10
2019-02-04T18:02:15.854Z,3.80
2019-02-04T18:04:47.298Z,7.30
2019-02-04T18:07:15.741Z,6.80
2019-02-04T18:09:45.431Z,7.80
2019-02-04T18:12:19.161Z,4.67
2019-02-04T18:14:47.514Z,3.80
2019-02-04T18:17:23.259Z,3.67
2019-02-04T18:19:56.532Z,3.97
2019-02-04T18:22:27.998Z,3.67
2019-02-04T18:25:23.071Z,4.47
2019-02-04T18:27:50.381Z,4.23
2019-02-04T18:30:23.690Z,4.43
2019-02-04T18:32:51.701Z,4.20
2019-02-04T18:35:21.397Z,4.33
2019-02-04T18:37:50.122Z,5.10
2019-02-04T18:40:20.626Z,4.70
2019-02-04T18:42:49.399Z,4.50
2019-02-04T18:45:21.082Z,4.50
2019-02-04T18:47:49.733Z,4.33
2019-02-04T18:50:19.725Z,4.77
2019-02-04T18:52:48.550Z,4.50
2019-02-04T18:55:19.498Z,5.10
2019-02-04T18:57:47.899Z,5.63
2019-02-04T19:00:18.900Z,3.37
2019-02-04T19:02:47.192Z,4.90
2019-02-04T19:05:15.609Z,4.27
2019-02-04T19:07:44.016Z,4.80
2019-02-04T19:10:22.247Z,4.77
2019-02-04T19:12:50.770Z,5.30
2019-02-04T19:15:21.082Z,4.70
2019-02-04T19:17:49.763Z,4.60
2019-02-04T19:20:21.229Z,4.97
2019-02-04T19:22:49.747Z,5.83
2019-02-04T19:25:19.930Z,4.70
2019-02-04T19:27:52.370Z,7.30
2019-02-04T19:30:33.281Z,5.17
2019-02-04T19:33:01.655Z,5.33
2019-02-04T19:35:30.033Z,6.03
2019-02-04T19:37:58.689Z,4.57
2019-02-04T19:40:27.059Z,3.90
2019-02-04T19:42:55.420Z,5.30
2019-02-04T19:45:25.285Z,7.40
2019-02-04T19:47:53.934Z,6.47
2019-02-04T19:50:31.030Z,7.10
2019-02-04T19:52:59.708Z,6.40
2019-02-04T19:55:28.135Z,6.07
2019-02-04T19:57:56.497Z,5.97
2019-02-04T20:00:24.962Z,7.70
2019-02-04T20:02:54.065Z,7.90
2019-02-04T20:05:27.072Z,6.87
2019-02-04T20:07:55.840Z,4.97
2019-02-04T20:10:27.472Z,5.07
2019-02-04T20:12:55.919Z,5.97
2019-02-04T20:15:26.723Z,5.97
2019-02-04T20:17:55.190Z,6.10
2019-02-04T20:20:23.898Z,5.70
2019-02-04T20:22:52.584Z,5.70
2019-02-04T20:25:24.275Z,5.43
2019-02-04T20:27:52.677Z,6.33
2019-02-04T20:30:44.577Z,5.50
2019-02-04T20:33:03.465Z,5.47
2019-02-04T20:35:31.900Z,6.97
2019-02-04T20:38:00.429Z,7.27
2019-02-04T20:40:28.744Z,5.83
2019-02-04T20:42:57.147Z,7.30
2019-02-04T20:45:25.593Z,6.87
2019-02-04T20:47:53.904Z,5.70
2019-02-04T20:50:28.077Z,7.00
2019-02-04T20:52:56.391Z,5.93
2019-02-04T20:55:24.671Z,6.60
2019-02-04T20:57:53.018Z,6.67
2019-02-04T21:00:23.925Z,7.13
2019-02-04T21:02:52.350Z,6.03
2019-02-04T21:05:20.602Z,6.83
2019-02-04T21:07:48.964Z,6.90
2019-02-04T21:10:26.735Z,6.23
2019-02-04T21:12:56.072Z,7.33
2019-02-04T21:15:24.728Z,7.13
2019-02-04T21:17:53.042Z,7.53
2019-02-04T21:20:23.962Z,6.20
2019-02-04T21:22:52.299Z,6.97
2019-02-04T21:25:20.648Z,7.53
2019-02-04T21:27:49.277Z,6.27
2019-02-04T21:30:31.687Z,7.00
2019-02-04T21:33:00.084Z,7.33
2019-02-04T21:35:28.450Z,7.57
2019-02-04T21:37:56.843Z,7.03
2019-02-04T21:40:25.610Z,7.80
2019-02-04T21:42:53.889Z,6.97
2019-02-04T21:45:23.664Z,7.97
2019-02-04T21:47:52.039Z,7.53
2019-02-04T21:50:22.155Z,9.00
2019-02-04T21:52:50.444Z,8.63
2019-02-04T21:55:18.979Z,8.80
2019-02-04T21:57:47.257Z,9.10
2019-02-04T22:00:24.833Z,7.17
2019-02-04T22:02:53.212Z,8.93
2019-02-04T22:05:26.591Z,9.37
2019-02-04T22:07:54.873Z,8.60
2019-02-04T22:10:25.020Z,8.83
2019-02-04T22:12:53.320Z,9.37
2019-02-04T22:15:22.240Z,7.80
2019-02-04T22:17:50.616Z,9.60
2019-02-04T22:20:20.100Z,9.40
2019-02-04T22:22:48.482Z,8.20
2019-02-04T22:25:19.934Z,9.97
2019-02-04T22:27:48.534Z,9.17
2019-02-04T22:30:18.843Z,9.77
2019-02-04T22:32:47.627Z,9.80
2019-02-04T22:35:17.598Z,9.17
2019-02-04T22:37:45.924Z,10.10
2019-02-04T22:40:23.375Z,9.23
2019-02-04T22:42:51.809Z,10.60
2019-02-04T22:45:20.259Z,11.53
2019-02-04T22:47:48.563Z,10.30
2019-02-04T22:50:24.721Z,8.60
2019-02-04T22:52:53.055Z,10.80
2019-02-04T22:55:31.541Z,11.20
2019-02-04T22:57:51.421Z,11.07
2019-02-04T23:00:51.698Z,11.47
2019-02-04T23:03:26.228Z,10.60
2019-02-04T23:05:54.568Z,12.60
2019-02-04T23:08:22.917Z,11.30
2019-02-04T23:10:51.187Z,12.37
2019-02-04T23:13:19.496Z,12.17
2019-02-04T23:15:47.789Z,11.73
2019-02-04T23:18:16.059Z,11.37
2019-02-04T23:20:45.120Z,12.00
2019-02-04T23:23:13.457Z,11.10
2019-02-04T23:25:43.593Z,11.00
2019-02-04T23:28:11.769Z,11.47
2019-02-04T23:30:40.132Z,11.67
2019-02-04T23:33:08.538Z,12.67
2019-02-04T23:35:36.867Z,13.33
2019-02-04T23:38:05.571Z,12.83
2019-02-04T23:40:33.921Z,11.83
2019-02-04T23:43:02.225Z,11.50
2019-02-04T23:45:30.620Z,13.73
2019-02-04T23:47:59.457Z,12.53
2019-02-04T23:50:28.092Z,12.17
2019-02-04T23:52:56.432Z,13.50
2019-02-04T23:55:24.726Z,10.23
2019-02-04T23:57:52.997Z,11.03
